sensor_id;sensor_type;location;lat;lon;timestamp;P1;durP1;ratioP1;P2;durP2;ratioP2
49582;SDS011;36329;48.816;44.624;2022-08-05T00:00:42;5.7;;;4;;
49582;SDS011;36329;48.816;44.624;2022-08-05T00:03:49;6.3;;;4;;
49582;SDS011;36329;48.816;44.624;2022-08-05T00:06:57;7.6;;;3.9;;
49582;SDS011;36329;48.816;44.624;2022-08-05T00:09:58;9.2;;;4.1;;
49582;SDS011;36329;48.816;44.624;2022-08-05T00:13:00;7.1;;;4.1;;
49582;SDS011;36329;48.816;44.624;2022-08-05T00:16:02;10.2;;;3.8;;
49582;SDS011;36329;48.816;44.624;2022-08-05T00:19:04;6.8;;;4;;
49582;SDS011;36329;48.816;44.624;2022-08-05T00:22:05;6;;;4;;
49582;SDS011;36329;48.816;44.624;2022-08-05T00:25:07;6.4;;;4.1;;
49582;SDS011;36329;48.816;44.624;2022-08-05T00:28:09;7.6;;;3.7;;
49582;SDS011;36329;48.816;44.624;2022-08-05T00:31:15;6.4;;;3.9;;
49582;SDS011;36329;48.816;44.624;2022-08-05T00:34:18;8;;;3.9;;
49582;SDS011;36329;48.816;44.624;2022-08-05T00:37:19;9.1;;;3.7;;
49582;SDS011;36329;48.816;44.624;2022-08-05T00:40:26;8;;;3.7;;
49582;SDS011;36329;48.816;44.624;2022-08-05T00:43:34;8.5;;;3.4;;
49582;SDS011;36329;48.816;44.624;2022-08-05T00:46:36;9.3;;;3.6;;
49582;SDS011;36329;48.816;44.624;2022-08-05T00:49:37;7.1;;;3.5;;
49582;SDS011;36329;48.816;44.624;2022-08-05T00:52:39;6.2;;;3.5;;
49582;SDS011;36329;48.816;44.624;2022-08-05T00:55:41;5.6;;;3.5;;
49582;SDS011;36329;48.816;44.624;2022-08-05T00:58:42;5.5;;;3.2;;
49582;SDS011;36329;48.816;44.624;2022-08-05T01:01:44;4.8;;;3.4;;
49582;SDS011;36329;48.816;44.624;2022-08-05T01:04:51;7.6;;;3.2;;
49582;SDS011;36329;48.816;44.624;2022-08-05T01:07:58;7.3;;;3.4;;
49582;SDS011;36329;48.816;44.624;2022-08-05T01:11:02;5.4;;;3.5;;
49582;SDS011;36329;48.816;44.624;2022-08-05T01:14:13;5.4;;;3.2;;
49582;SDS011;36329;48.816;44.624;2022-08-05T01:17:26;5.2;;;3.1;;
49582;SDS011;36329;48.816;44.624;2022-08-05T01:20:36;7.5;;;3.1;;
49582;SDS011;36329;48.816;44.624;2022-08-05T01:23:55;6;;;2.9;;
49582;SDS011;36329;48.816;44.624;2022-08-05T01:27:06;5.3;;;2.9;;
49582;SDS011;36329;48.816;44.624;2022-08-05T01:30:20;6.9;;;3.2;;
49582;SDS011;36329;48.816;44.624;2022-08-05T01:33:31;6.4;;;3;;
49582;SDS011;36329;48.816;44.624;2022-08-05T01:36:38;4.5;;;2.6;;
49582;SDS011;36329;48.816;44.624;2022-08-05T01:39:59;5.3;;;2.6;;
49582;SDS011;36329;48.816;44.624;2022-08-05T01:43:03;6.1;;;2.9;;
49582;SDS011;36329;48.816;44.624;2022-08-05T01:46:06;4.9;;;2.9;;
49582;SDS011;36329;48.816;44.624;2022-08-05T01:49:08;3.9;;;2.6;;
49582;SDS011;36329;48.816;44.624;2022-08-05T01:52:18;7.6;;;3.2;;
49582;SDS011;36329;48.816;44.624;2022-08-05T01:55:22;4;;;2.5;;
49582;SDS011;36329;48.816;44.624;2022-08-05T01:58:29;5;;;2.4;;
49582;SDS011;36329;48.816;44.624;2022-08-05T02:01:32;4.8;;;2.6;;
49582;SDS011;36329;48.816;44.624;2022-08-05T02:04:36;5.1;;;2.8;;
49582;SDS011;36329;48.816;44.624;2022-08-05T02:07:40;7.8;;;2.9;;
49582;SDS011;36329;48.816;44.624;2022-08-05T02:10:43;4.6;;;2.7;;
49582;SDS011;36329;48.816;44.624;2022-08-05T02:13:51;5.9;;;2.8;;
49582;SDS011;36329;48.816;44.624;2022-08-05T02:16:57;7.3;;;2.9;;
49582;SDS011;36329;48.816;44.624;2022-08-05T02:20:06;5.2;;;2.8;;
49582;SDS011;36329;48.816;44.624;2022-08-05T02:23:18;5.6;;;2.5;;
49582;SDS011;36329;48.816;44.624;2022-08-05T02:26:29;6.3;;;2.4;;
49582;SDS011;36329;48.816;44.624;2022-08-05T02:29:36;5.1;;;2.7;;
49582;SDS011;36329;48.816;44.624;2022-08-05T02:32:49;5.6;;;2.8;;
49582;SDS011;36329;48.816;44.624;2022-08-05T02:35:55;5.1;;;2.5;;
49582;SDS011;36329;48.816;44.624;2022-08-05T02:39:00;5.7;;;2.6;;
49582;SDS011;36329;48.816;44.624;2022-08-05T02:42:05;5.9;;;2.6;;
49582;SDS011;36329;48.816;44.624;2022-08-05T02:45:13;4.5;;;2.5;;
49582;SDS011;36329;48.816;44.624;2022-08-05T02:48:17;5.5;;;2.5;;
49582;SDS011;36329;48.816;44.624;2022-08-05T02:51:21;4.4;;;2.4;;
49582;SDS011;36329;48.816;44.624;2022-08-05T02:54:24;6.8;;;2.6;;
49582;SDS011;36329;48.816;44.624;2022-08-05T02:57:27;4.9;;;2.4;;
49582;SDS011;36329;48.816;44.624;2022-08-05T03:00:29;4.5;;;2.3;;
49582;SDS011;36329;48.816;44.624;2022-08-05T03:03:31;8.9;;;2.6;;
49582;SDS011;36329;48.816;44.624;2022-08-05T03:06:33;4.7;;;2.4;;
49582;SDS011;36329;48.816;44.624;2022-08-05T03:09:41;8.5;;;2.8;;
49582;SDS011;36329;48.816;44.624;2022-08-05T03:12:43;5.2;;;2.3;;
49582;SDS011;36329;48.816;44.624;2022-08-05T03:15:46;5.5;;;2.3;;
49582;SDS011;36329;48.816;44.624;2022-08-05T03:18:48;6.2;;;2.2;;
49582;SDS011;36329;48.816;44.624;2022-08-05T03:21:49;5;;;2.1;;
49582;SDS011;36329;48.816;44.624;2022-08-05T03:24:57;5.5;;;2.3;;
49582;SDS011;36329;48.816;44.624;2022-08-05T03:28:06;4.1;;;2.5;;
49582;SDS011;36329;48.816;44.624;2022-08-05T03:31:10;4.4;;;2.1;;
49582;SDS011;36329;48.816;44.624;2022-08-05T03:34:17;6.4;;;2.2;;
49582;SDS011;36329;48.816;44.624;2022-08-05T03:37:20;5.3;;;2.4;;
49582;SDS011;36329;48.816;44.624;2022-08-05T03:40:22;4.4;;;2;;
49582;SDS011;36329;48.816;44.624;2022-08-05T03:43:23;4.5;;;2;;
49582;SDS011;36329;48.816;44.624;2022-08-05T03:46:25;5.2;;;2.2;;
49582;SDS011;36329;48.816;44.624;2022-08-05T03:49:26;6.2;;;2.5;;
49582;SDS011;36329;48.816;44.624;2022-08-05T03:52:34;8.6;;;2.4;;
49582;SDS011;36329;48.816;44.624;2022-08-05T03:55:43;5.3;;;2.2;;
49582;SDS011;36329;48.816;44.624;2022-08-05T03:58:52;5.2;;;2.2;;
49582;SDS011;36329;48.816;44.624;2022-08-05T04:01:57;8.9;;;2.7;;
49582;SDS011;36329;48.816;44.624;2022-08-05T04:05:02;4.4;;;2.1;;
49582;SDS011;36329;48.816;44.624;2022-08-05T04:08:06;8.7;;;2.1;;
49582;SDS011;36329;48.816;44.624;2022-08-05T04:11:14;6.9;;;2.3;;
49582;SDS011;36329;48.816;44.624;2022-08-05T04:14:17;4.6;;;1.9;;
49582;SDS011;36329;48.816;44.624;2022-08-05T04:17:19;4.9;;;1.9;;
49582;SDS011;36329;48.816;44.624;2022-08-05T04:20:22;5.9;;;2.3;;
49582;SDS011;36329;48.816;44.624;2022-08-05T04:23:25;6.1;;;2.1;;
49582;SDS011;36329;48.816;44.624;2022-08-05T04:26:28;4.7;;;1.9;;
49582;SDS011;36329;48.816;44.624;2022-08-05T04:29:30;6.1;;;2.2;;
49582;SDS011;36329;48.816;44.624;2022-08-05T04:32:32;8;;;2.2;;
49582;SDS011;36329;48.816;44.624;2022-08-05T04:35:33;5.1;;;1.8;;
49582;SDS011;36329;48.816;44.624;2022-08-05T04:38:35;4.3;;;2.1;;
49582;SDS011;36329;48.816;44.624;2022-08-05T04:41:41;7.2;;;2.3;;
49582;SDS011;36329;48.816;44.624;2022-08-05T04:44:49;4.2;;;2;;
49582;SDS011;36329;48.816;44.624;2022-08-05T04:47:50;4.6;;;1.8;;
49582;SDS011;36329;48.816;44.624;2022-08-05T04:50:52;5.9;;;2.2;;
49582;SDS011;36329;48.816;44.624;2022-08-05T04:53:53;6.6;;;2.2;;
49582;SDS011;36329;48.816;44.624;2022-08-05T04:56:55;6.7;;;2.5;;
49582;SDS011;36329;48.816;44.624;2022-08-05T04:59:56;5.2;;;2.4;;
49582;SDS011;36329;48.816;44.624;2022-08-05T05:03:05;4.3;;;2.1;;
49582;SDS011;36329;48.816;44.624;2022-08-05T05:06:09;10.8;;;2.3;;
49582;SDS011;36329;48.816;44.624;2022-08-05T05:09:10;3.8;;;2;;
49582;SDS011;36329;48.816;44.624;2022-08-05T05:12:12;6.2;;;2.2;;
49582;SDS011;36329;48.816;44.624;2022-08-05T05:15:14;5.1;;;2.2;;
49582;SDS011;36329;48.816;44.624;2022-08-05T05:18:15;6.2;;;2;;
49582;SDS011;36329;48.816;44.624;2022-08-05T05:21:17;8.9;;;2.1;;
49582;SDS011;36329;48.816;44.624;2022-08-05T05:24:19;6.8;;;2.3;;
49582;SDS011;36329;48.816;44.624;2022-08-05T05:27:20;7;;;2.1;;
49582;SDS011;36329;48.816;44.624;2022-08-05T05:30:22;8.7;;;2.2;;
49582;SDS011;36329;48.816;44.624;2022-08-05T05:33:24;6;;;2;;
49582;SDS011;36329;48.816;44.624;2022-08-05T05:36:26;6;;;2;;
49582;SDS011;36329;48.816;44.624;2022-08-05T05:39:27;6.9;;;2.2;;
49582;SDS011;36329;48.816;44.624;2022-08-05T05:42:29;8;;;2.1;;
49582;SDS011;36329;48.816;44.624;2022-08-05T05:45:30;7.8;;;1.8;;
49582;SDS011;36329;48.816;44.624;2022-08-05T05:48:37;4.6;;;1.9;;
49582;SDS011;36329;48.816;44.624;2022-08-05T05:51:40;9.6;;;2.1;;
49582;SDS011;36329;48.816;44.624;2022-08-05T05:54:42;8.1;;;1.8;;
49582;SDS011;36329;48.816;44.624;2022-08-05T05:57:44;7.5;;;2;;
49582;SDS011;36329;48.816;44.624;2022-08-05T06:00:46;6.1;;;1.8;;
49582;SDS011;36329;48.816;44.624;2022-08-05T06:03:48;5.7;;;1.9;;
49582;SDS011;36329;48.816;44.624;2022-08-05T06:06:55;4.5;;;2;;
49582;SDS011;36329;48.816;44.624;2022-08-05T06:09:57;5.7;;;1.7;;
49582;SDS011;36329;48.816;44.624;2022-08-05T06:12:58;6;;;1.8;;
49582;SDS011;36329;48.816;44.624;2022-08-05T06:16:00;10.4;;;2;;
49582;SDS011;36329;48.816;44.624;2022-08-05T06:19:01;5.8;;;1.6;;
49582;SDS011;36329;48.816;44.624;2022-08-05T06:22:03;3.9;;;1.7;;
49582;SDS011;36329;48.816;44.624;2022-08-05T06:25:07;5.6;;;2;;
49582;SDS011;36329;48.816;44.624;2022-08-05T06:28:08;4.5;;;1.7;;
49582;SDS011;36329;48.816;44.624;2022-08-05T06:31:10;5.5;;;1.6;;
49582;SDS011;36329;48.816;44.624;2022-08-05T06:34:12;6.5;;;1.9;;
49582;SDS011;36329;48.816;44.624;2022-08-05T06:37:18;9.4;;;2.1;;
49582;SDS011;36329;48.816;44.624;2022-08-05T06:40:20;8.6;;;1.8;;
49582;SDS011;36329;48.816;44.624;2022-08-05T06:43:27;5.5;;;1.7;;
49582;SDS011;36329;48.816;44.624;2022-08-05T06:46:29;8.2;;;1.9;;
49582;SDS011;36329;48.816;44.624;2022-08-05T06:49:31;6.9;;;1.8;;
49582;SDS011;36329;48.816;44.624;2022-08-05T06:52:32;3.5;;;1.3;;
49582;SDS011;36329;48.816;44.624;2022-08-05T06:55:34;6.7;;;1.7;;
49582;SDS011;36329;48.816;44.624;2022-08-05T06:58:35;5.2;;;1.5;;
49582;SDS011;36329;48.816;44.624;2022-08-05T07:01:37;4.5;;;1.7;;
49582;SDS011;36329;48.816;44.624;2022-08-05T07:04:39;9.2;;;1.7;;
49582;SDS011;36329;48.816;44.624;2022-08-05T07:07:40;7.3;;;1.6;;
49582;SDS011;36329;48.816;44.624;2022-08-05T07:10:42;4.6;;;1.6;;
49582;SDS011;36329;48.816;44.624;2022-08-05T07:13:43;6.1;;;1.6;;
49582;SDS011;36329;48.816;44.624;2022-08-05T07:16:45;6.3;;;1.6;;
49582;SDS011;36329;48.816;44.624;2022-08-05T07:19:47;6.1;;;1.5;;
49582;SDS011;36329;48.816;44.624;2022-08-05T07:22:49;9.5;;;1.6;;
49582;SDS011;36329;48.816;44.624;2022-08-05T07:25:50;5.8;;;1.7;;
49582;SDS011;36329;48.816;44.624;2022-08-05T07:28:52;6.2;;;1.8;;
49582;SDS011;36329;48.816;44.624;2022-08-05T07:31:54;6.3;;;1.8;;
49582;SDS011;36329;48.816;44.624;2022-08-05T07:34:55;6.1;;;1.8;;
49582;SDS011;36329;48.816;44.624;2022-08-05T07:38:03;8.4;;;1.7;;
49582;SDS011;36329;48.816;44.624;2022-08-05T07:41:10;6.7;;;1.7;;
49582;SDS011;36329;48.816;44.624;2022-08-05T07:44:22;5.2;;;1.7;;
49582;SDS011;36329;48.816;44.624;2022-08-05T07:47:24;5.9;;;1.6;;
49582;SDS011;36329;48.816;44.624;2022-08-05T07:50:31;5.1;;;1.6;;
49582;SDS011;36329;48.816;44.624;2022-08-05T07:53:38;5.6;;;1.8;;
49582;SDS011;36329;48.816;44.624;2022-08-05T07:56:40;6.8;;;1.6;;
49582;SDS011;36329;48.816;44.624;2022-08-05T07:59:41;3.8;;;1.6;;
49582;SDS011;36329;48.816;44.624;2022-08-05T08:02:43;6.3;;;1.7;;
49582;SDS011;36329;48.816;44.624;2022-08-05T08:05:44;5.5;;;1.5;;
49582;SDS011;36329;48.816;44.624;2022-08-05T08:08:46;5.6;;;1.3;;
49582;SDS011;36329;48.816;44.624;2022-08-05T08:15:15;6.1;;;1.4;;
49582;SDS011;36329;48.816;44.624;2022-08-05T08:18:17;6.7;;;1.6;;
49582;SDS011;36329;48.816;44.624;2022-08-05T08:21:24;8.6;;;1.7;;
49582;SDS011;36329;48.816;44.624;2022-08-05T08:24:26;5.6;;;1.7;;
49582;SDS011;36329;48.816;44.624;2022-08-05T08:27:28;6.3;;;1.8;;
49582;SDS011;36329;48.816;44.624;2022-08-05T08:30:30;4;;;1.8;;
49582;SDS011;36329;48.816;44.624;2022-08-05T08:33:33;5.4;;;1.6;;
49582;SDS011;36329;48.816;44.624;2022-08-05T08:36:35;5.5;;;1.8;;
49582;SDS011;36329;48.816;44.624;2022-08-05T08:39:36;5.8;;;1.8;;
49582;SDS011;36329;48.816;44.624;2022-08-05T08:42:45;4.9;;;2.3;;
49582;SDS011;36329;48.816;44.624;2022-08-05T08:45:51;6.2;;;1.9;;
49582;SDS011;36329;48.816;44.624;2022-08-05T08:48:54;3.6;;;1.8;;
49582;SDS011;36329;48.816;44.624;2022-08-05T08:51:58;7.3;;;2;;
49582;SDS011;36329;48.816;44.624;2022-08-05T08:55:04;6.2;;;1.9;;
49582;SDS011;36329;48.816;44.624;2022-08-05T08:58:06;5.2;;;1.9;;
49582;SDS011;36329;48.816;44.624;2022-08-05T09:01:09;6.4;;;2.1;;
49582;SDS011;36329;48.816;44.624;2022-08-05T09:04:16;4.4;;;1.7;;
49582;SDS011;36329;48.816;44.624;2022-08-05T09:07:18;6.3;;;1.7;;
49582;SDS011;36329;48.816;44.624;2022-08-05T09:10:26;6.3;;;2;;
49582;SDS011;36329;48.816;44.624;2022-08-05T09:13:28;3.4;;;1.3;;
49582;SDS011;36329;48.816;44.624;2022-08-05T09:16:30;6.2;;;2.1;;
49582;SDS011;36329;48.816;44.624;2022-08-05T09:19:32;5.6;;;2;;
49582;SDS011;36329;48.816;44.624;2022-08-05T09:26:08;7.1;;;2.2;;
49582;SDS011;36329;48.816;44.624;2022-08-05T09:29:12;4.2;;;1.8;;
49582;SDS011;36329;48.816;44.624;2022-08-05T09:32:13;8.7;;;2.1;;
49582;SDS011;36329;48.816;44.624;2022-08-05T09:35:15;9.9;;;2.1;;
49582;SDS011;36329;48.816;44.624;2022-08-05T09:38:22;3.1;;;1.9;;
49582;SDS011;36329;48.816;44.624;2022-08-05T09:41:25;5.5;;;1.6;;
49582;SDS011;36329;48.816;44.624;2022-08-05T09:44:33;5.7;;;1.6;;
49582;SDS011;36329;48.816;44.624;2022-08-05T09:47:38;5.3;;;1.6;;
49582;SDS011;36329;48.816;44.624;2022-08-05T09:50:41;4.9;;;1.3;;
49582;SDS011;36329;48.816;44.624;2022-08-05T09:53:48;5.9;;;1.3;;
49582;SDS011;36329;48.816;44.624;2022-08-05T09:56:52;5.6;;;1.5;;
49582;SDS011;36329;48.816;44.624;2022-08-05T09:59:56;3.9;;;1.1;;
49582;SDS011;36329;48.816;44.624;2022-08-05T10:02:58;3.6;;;1.2;;
49582;SDS011;36329;48.816;44.624;2022-08-05T10:06:16;2.9;;;1.1;;
49582;SDS011;36329;48.816;44.624;2022-08-05T10:09:20;3.7;;;1.2;;
49582;SDS011;36329;48.816;44.624;2022-08-05T10:12:22;4;;;1;;
49582;SDS011;36329;48.816;44.624;2022-08-05T10:15:25;4.1;;;1.2;;
49582;SDS011;36329;48.816;44.624;2022-08-05T10:18:28;3.8;;;1.1;;
49582;SDS011;36329;48.816;44.624;2022-08-05T10:21:30;3.9;;;1.1;;
49582;SDS011;36329;48.816;44.624;2022-08-05T10:24:36;4.7;;;1.3;;
49582;SDS011;36329;48.816;44.624;2022-08-05T10:27:39;4.7;;;1.3;;
49582;SDS011;36329;48.816;44.624;2022-08-05T10:30:41;5.3;;;1.6;;
49582;SDS011;36329;48.816;44.624;2022-08-05T10:33:49;3.2;;;1.5;;
49582;SDS011;36329;48.816;44.624;2022-08-05T10:36:51;3.7;;;1.2;;
49582;SDS011;36329;48.816;44.624;2022-08-05T10:39:54;4.5;;;1.8;;
49582;SDS011;36329;48.816;44.624;2022-08-05T10:43:01;2.4;;;1.4;;
49582;SDS011;36329;48.816;44.624;2022-08-05T10:46:09;8.8;;;1.6;;
49582;SDS011;36329;48.816;44.624;2022-08-05T10:49:17;3.3;;;1.3;;
49582;SDS011;36329;48.816;44.624;2022-08-05T10:55:41;5.2;;;2.8;;
49582;SDS011;36329;48.816;44.624;2022-08-05T10:59:05;3.9;;;2.1;;
49582;SDS011;36329;48.816;44.624;2022-08-05T11:02:08;3.7;;;1.5;;
49582;SDS011;36329;48.816;44.624;2022-08-05T11:05:11;2.1;;;1.4;;
49582;SDS011;36329;48.816;44.624;2022-08-05T11:08:18;3.4;;;1.4;;
49582;SDS011;36329;48.816;44.624;2022-08-05T11:14:34;5.5;;;1.5;;
49582;SDS011;36329;48.816;44.624;2022-08-05T11:17:36;4.5;;;1.3;;
49582;SDS011;36329;48.816;44.624;2022-08-05T11:20:44;5.1;;;1.6;;
49582;SDS011;36329;48.816;44.624;2022-08-05T11:23:51;4.4;;;1.2;;
49582;SDS011;36329;48.816;44.624;2022-08-05T11:30:20;3.5;;;1.1;;
49582;SDS011;36329;48.816;44.624;2022-08-05T11:33:23;3;;;1.2;;
49582;SDS011;36329;48.816;44.624;2022-08-05T11:39:46;4.8;;;1.1;;
49582;SDS011;36329;48.816;44.624;2022-08-05T11:42:48;4.3;;;1.2;;
49582;SDS011;36329;48.816;44.624;2022-08-05T11:45:50;4;;;1;;
49582;SDS011;36329;48.816;44.624;2022-08-05T11:48:52;1.8;;;1.1;;
49582;SDS011;36329;48.816;44.624;2022-08-05T11:51:54;7.4;;;1.3;;
49582;SDS011;36329;48.816;44.624;2022-08-05T11:54:56;3.2;;;1.2;;
49582;SDS011;36329;48.816;44.624;2022-08-05T11:57:58;2.3;;;1.2;;
49582;SDS011;36329;48.816;44.624;2022-08-05T12:01:00;5.8;;;1.3;;
49582;SDS011;36329;48.816;44.624;2022-08-05T12:04:02;3.2;;;1.3;;
49582;SDS011;36329;48.816;44.624;2022-08-05T12:07:05;2.5;;;1.1;;
49582;SDS011;36329;48.816;44.624;2022-08-05T12:10:07;4;;;1.3;;
49582;SDS011;36329;48.816;44.624;2022-08-05T12:13:14;4.5;;;1.2;;
49582;SDS011;36329;48.816;44.624;2022-08-05T12:16:17;4.8;;;1.5;;
49582;SDS011;36329;48.816;44.624;2022-08-05T12:19:19;5.5;;;1.4;;
49582;SDS011;36329;48.816;44.624;2022-08-05T12:22:24;3.7;;;1.2;;
49582;SDS011;36329;48.816;44.624;2022-08-05T12:28:53;4.7;;;1.4;;
49582;SDS011;36329;48.816;44.624;2022-08-05T12:31:55;5.3;;;1.9;;
49582;SDS011;36329;48.816;44.624;2022-08-05T12:34:58;4.9;;;1.5;;
49582;SDS011;36329;48.816;44.624;2022-08-05T12:38:11;6.2;;;1.9;;
49582;SDS011;36329;48.816;44.624;2022-08-05T12:41:13;7.3;;;3.3;;
49582;SDS011;36329;48.816;44.624;2022-08-05T12:44:21;5.4;;;1.9;;
49582;SDS011;36329;48.816;44.624;2022-08-05T12:47:26;4.2;;;1.7;;
49582;SDS011;36329;48.816;44.624;2022-08-05T12:50:29;7.4;;;1.6;;
49582;SDS011;36329;48.816;44.624;2022-08-05T12:53:31;3.9;;;1.6;;
49582;SDS011;36329;48.816;44.624;2022-08-05T12:56:32;4.6;;;1.6;;
49582;SDS011;36329;48.816;44.624;2022-08-05T12:59:41;3.6;;;1.4;;
49582;SDS011;36329;48.816;44.624;2022-08-05T13:02:46;3.5;;;1.4;;
49582;SDS011;36329;48.816;44.624;2022-08-05T13:05:52;6.6;;;1.6;;
49582;SDS011;36329;48.816;44.624;2022-08-05T13:08:54;6.2;;;2.4;;
49582;SDS011;36329;48.816;44.624;2022-08-05T13:12:00;6.6;;;2.8;;
49582;SDS011;36329;48.816;44.624;2022-08-05T13:15:04;6.3;;;2.1;;
49582;SDS011;36329;48.816;44.624;2022-08-05T13:18:06;3.2;;;1.6;;
49582;SDS011;36329;48.816;44.624;2022-08-05T13:21:08;5.6;;;1.6;;
49582;SDS011;36329;48.816;44.624;2022-08-05T13:24:10;4.4;;;1.5;;
49582;SDS011;36329;48.816;44.624;2022-08-05T13:27:11;9.2;;;1.7;;
49582;SDS011;36329;48.816;44.624;2022-08-05T13:30:14;5.9;;;1.7;;
49582;SDS011;36329;48.816;44.624;2022-08-05T13:33:17;4.3;;;1.9;;
49582;SDS011;36329;48.816;44.624;2022-08-05T13:36:18;5.9;;;2.1;;
49582;SDS011;36329;48.816;44.624;2022-08-05T13:39:20;5.9;;;1.8;;
49582;SDS011;36329;48.816;44.624;2022-08-05T13:42:22;6.1;;;1.8;;
49582;SDS011;36329;48.816;44.624;2022-08-05T13:45:24;6.2;;;1.9;;
49582;SDS011;36329;48.816;44.624;2022-08-05T13:48:26;4.4;;;1.7;;
49582;SDS011;36329;48.816;44.624;2022-08-05T13:51:29;7.5;;;2.2;;
49582;SDS011;36329;48.816;44.624;2022-08-05T13:54:37;4.5;;;1.8;;
49582;SDS011;36329;48.816;44.624;2022-08-05T13:57:39;7.9;;;1.7;;
49582;SDS011;36329;48.816;44.624;2022-08-05T14:00:41;5.3;;;1.4;;
49582;SDS011;36329;48.816;44.624;2022-08-05T14:03:42;7.4;;;4;;
49582;SDS011;36329;48.816;44.624;2022-08-05T14:06:44;9.8;;;5.7;;
49582;SDS011;36329;48.816;44.624;2022-08-05T14:09:46;7.4;;;4.6;;
49582;SDS011;36329;48.816;44.624;2022-08-05T14:12:47;10.4;;;4;;
49582;SDS011;36329;48.816;44.624;2022-08-05T14:15:50;7.9;;;3.3;;
49582;SDS011;36329;48.816;44.624;2022-08-05T14:18:51;9.8;;;5.6;;
49582;SDS011;36329;48.816;44.624;2022-08-05T14:21:53;8;;;2.6;;
49582;SDS011;36329;48.816;44.624;2022-08-05T14:24:55;7.1;;;2.1;;
49582;SDS011;36329;48.816;44.624;2022-08-05T14:27:56;6.8;;;2.2;;
49582;SDS011;36329;48.816;44.624;2022-08-05T14:30:58;5.6;;;1.9;;
49582;SDS011;36329;48.816;44.624;2022-08-05T14:34:00;5.2;;;2.1;;
49582;SDS011;36329;48.816;44.624;2022-08-05T14:37:02;6.3;;;2.3;;
49582;SDS011;36329;48.816;44.624;2022-08-05T14:40:04;7.1;;;2.7;;
49582;SDS011;36329;48.816;44.624;2022-08-05T14:43:07;6.7;;;3;;
49582;SDS011;36329;48.816;44.624;2022-08-05T14:46:08;8.5;;;2.5;;
49582;SDS011;36329;48.816;44.624;2022-08-05T14:49:10;7.3;;;2.7;;
49582;SDS011;36329;48.816;44.624;2022-08-05T14:52:11;5.8;;;2.8;;
49582;SDS011;36329;48.816;44.624;2022-08-05T14:55:14;8.7;;;2.6;;
49582;SDS011;36329;48.816;44.624;2022-08-05T14:58:15;8.1;;;1.8;;
49582;SDS011;36329;48.816;44.624;2022-08-05T15:01:17;9.4;;;2;;
49582;SDS011;36329;48.816;44.624;2022-08-05T15:04:19;3.7;;;1.7;;
49582;SDS011;36329;48.816;44.624;2022-08-05T15:07:27;8;;;1.9;;
49582;SDS011;36329;48.816;44.624;2022-08-05T15:10:29;7.3;;;2.4;;
49582;SDS011;36329;48.816;44.624;2022-08-05T15:13:31;6.3;;;3.4;;
49582;SDS011;36329;48.816;44.624;2022-08-05T15:16:32;8.4;;;2.7;;
49582;SDS011;36329;48.816;44.624;2022-08-05T15:19:34;6.2;;;2.3;;
49582;SDS011;36329;48.816;44.624;2022-08-05T15:22:36;8.2;;;3.5;;
49582;SDS011;36329;48.816;44.624;2022-08-05T15:25:38;9.5;;;4;;
49582;SDS011;36329;48.816;44.624;2022-08-05T15:28:40;7.6;;;2.7;;
49582;SDS011;36329;48.816;44.624;2022-08-05T15:31:41;6.3;;;2.8;;
49582;SDS011;36329;48.816;44.624;2022-08-05T15:34:43;9.2;;;2.3;;
49582;SDS011;36329;48.816;44.624;2022-08-05T15:37:50;6.4;;;2.2;;
49582;SDS011;36329;48.816;44.624;2022-08-05T15:40:51;8.8;;;2.2;;
49582;SDS011;36329;48.816;44.624;2022-08-05T15:43:53;12.3;;;2;;
49582;SDS011;36329;48.816;44.624;2022-08-05T15:46:55;7.4;;;2.1;;
49582;SDS011;36329;48.816;44.624;2022-08-05T15:49:56;6.5;;;2.5;;
49582;SDS011;36329;48.816;44.624;2022-08-05T15:52:58;9.9;;;2.2;;
49582;SDS011;36329;48.816;44.624;2022-08-05T15:55:59;6.1;;;2.1;;
49582;SDS011;36329;48.816;44.624;2022-08-05T15:59:01;5.3;;;1.9;;
49582;SDS011;36329;48.816;44.624;2022-08-05T16:02:04;6.7;;;2;;
49582;SDS011;36329;48.816;44.624;2022-08-05T16:05:06;8;;;2.1;;
49582;SDS011;36329;48.816;44.624;2022-08-05T16:08:08;6.6;;;1.9;;
49582;SDS011;36329;48.816;44.624;2022-08-05T16:11:16;5;;;1.6;;
49582;SDS011;36329;48.816;44.624;2022-08-05T16:14:18;4;;;1.8;;
49582;SDS011;36329;48.816;44.624;2022-08-05T16:17:20;9.1;;;1.9;;
49582;SDS011;36329;48.816;44.624;2022-08-05T16:20:22;6;;;1.7;;
49582;SDS011;36329;48.816;44.624;2022-08-05T16:23:24;6.3;;;3.2;;
49582;SDS011;36329;48.816;44.624;2022-08-05T16:26:27;5.8;;;4;;
49582;SDS011;36329;48.816;44.624;2022-08-05T16:29:29;7.3;;;3.9;;
49582;SDS011;36329;48.816;44.624;2022-08-05T16:32:31;6.9;;;2.2;;
49582;SDS011;36329;48.816;44.624;2022-08-05T16:35:33;5.1;;;1.6;;
49582;SDS011;36329;48.816;44.624;2022-08-05T16:38:35;6.9;;;1.7;;
49582;SDS011;36329;48.816;44.624;2022-08-05T16:41:36;8.2;;;1.6;;
49582;SDS011;36329;48.816;44.624;2022-08-05T16:44:39;5.2;;;1.4;;
49582;SDS011;36329;48.816;44.624;2022-08-05T16:47:41;4.4;;;1.6;;
49582;SDS011;36329;48.816;44.624;2022-08-05T16:50:47;6.8;;;1.5;;
49582;SDS011;36329;48.816;44.624;2022-08-05T16:53:51;7.5;;;1.7;;
49582;SDS011;36329;48.816;44.624;2022-08-05T16:56:58;5.1;;;1.6;;
49582;SDS011;36329;48.816;44.624;2022-08-05T17:00:00;7.3;;;1.8;;
49582;SDS011;36329;48.816;44.624;2022-08-05T17:03:02;7.2;;;1.5;;
49582;SDS011;36329;48.816;44.624;2022-08-05T17:06:05;5;;;1.4;;
49582;SDS011;36329;48.816;44.624;2022-08-05T17:09:07;5.8;;;1.6;;
49582;SDS011;36329;48.816;44.624;2022-08-05T17:12:08;7.8;;;1.6;;
49582;SDS011;36329;48.816;44.624;2022-08-05T17:15:10;5.4;;;1.5;;
49582;SDS011;36329;48.816;44.624;2022-08-05T17:18:12;5.9;;;1.6;;
49582;SDS011;36329;48.816;44.624;2022-08-05T17:21:14;6.2;;;1.5;;
49582;SDS011;36329;48.816;44.624;2022-08-05T17:24:16;5.5;;;1.7;;
49582;SDS011;36329;48.816;44.624;2022-08-05T17:27:18;7.4;;;1.7;;
49582;SDS011;36329;48.816;44.624;2022-08-05T17:30:20;3.7;;;1.5;;
49582;SDS011;36329;48.816;44.624;2022-08-05T17:33:22;8.8;;;1.9;;
49582;SDS011;36329;48.816;44.624;2022-08-05T17:36:23;8.9;;;2.3;;
49582;SDS011;36329;48.816;44.624;2022-08-05T17:39:30;7.8;;;2.2;;
49582;SDS011;36329;48.816;44.624;2022-08-05T17:42:38;7.6;;;1.9;;
49582;SDS011;36329;48.816;44.624;2022-08-05T17:45:40;8.2;;;2;;
49582;SDS011;36329;48.816;44.624;2022-08-05T17:48:42;5.6;;;1.6;;
49582;SDS011;36329;48.816;44.624;2022-08-05T17:51:43;6;;;1.5;;
49582;SDS011;36329;48.816;44.624;2022-08-05T17:54:45;5.6;;;1.4;;
49582;SDS011;36329;48.816;44.624;2022-08-05T17:57:51;6.5;;;1.7;;
49582;SDS011;36329;48.816;44.624;2022-08-05T18:00:58;10.4;;;1.6;;
49582;SDS011;36329;48.816;44.624;2022-08-05T18:04:00;5.9;;;1.4;;
49582;SDS011;36329;48.816;44.624;2022-08-05T18:07:02;5.3;;;1.6;;
49582;SDS011;36329;48.816;44.624;2022-08-05T18:10:15;6.9;;;1.5;;
49582;SDS011;36329;48.816;44.624;2022-08-05T18:13:17;9.7;;;1.7;;
49582;SDS011;36329;48.816;44.624;2022-08-05T18:16:20;8.1;;;2.4;;
49582;SDS011;36329;48.816;44.624;2022-08-05T18:19:21;7.9;;;1.7;;
49582;SDS011;36329;48.816;44.624;2022-08-05T18:22:29;12.5;;;2.1;;
49582;SDS011;36329;48.816;44.624;2022-08-05T18:25:30;7.4;;;1.3;;
49582;SDS011;36329;48.816;44.624;2022-08-05T18:28:33;7.8;;;1.4;;
49582;SDS011;36329;48.816;44.624;2022-08-05T18:31:40;9.7;;;1.5;;
49582;SDS011;36329;48.816;44.624;2022-08-05T18:34:47;6.8;;;1.8;;
49582;SDS011;36329;48.816;44.624;2022-08-05T18:37:59;5.5;;;1.5;;
49582;SDS011;36329;48.816;44.624;2022-08-05T18:41:02;6.8;;;1.3;;
49582;SDS011;36329;48.816;44.624;2022-08-05T18:44:04;11.3;;;1.7;;
49582;SDS011;36329;48.816;44.624;2022-08-05T18:47:05;4.7;;;1.7;;
49582;SDS011;36329;48.816;44.624;2022-08-05T18:50:07;7.4;;;1.8;;
49582;SDS011;36329;48.816;44.624;2022-08-05T18:53:14;8.7;;;1.5;;
49582;SDS011;36329;48.816;44.624;2022-08-05T18:56:16;5.2;;;1.4;;
49582;SDS011;36329;48.816;44.624;2022-08-05T18:59:19;7.1;;;1.5;;
49582;SDS011;36329;48.816;44.624;2022-08-05T19:02:21;9;;;1.6;;
49582;SDS011;36329;48.816;44.624;2022-08-05T19:05:22;7;;;1.5;;
49582;SDS011;36329;48.816;44.624;2022-08-05T19:08:24;7.1;;;1.3;;
49582;SDS011;36329;48.816;44.624;2022-08-05T19:11:26;7.4;;;1.5;;